Carepa, Apartado Airport (SKLC)

NameApartado Airport
CityCarepa
CountryColombia
ICAOSKLC
IATAAPO
Altitude14 m
CoordinatesGoogle Map
Live Air TrafficLiveATC.net
METARSKLC 251700Z 23004KT 9999 BKN020 31/25 A2988
2020-04-25 17:00:00 Wind: Southwest (230°) 2.06 m/s - Visibility: > 10000 m - Temperature: 31 °C - Dew point: 25 °C - Humidity: 70.4% - Pressure: 1011.85 hPa

Sorry, no flights used the airport in this database.